HOURLY OBSERVATIONS


Time
(EST)
Temperature
°F
Dew Point
°F
Humidity
%
Wind
mph
Pressure
mb
Precip.
Hour
in
Precip.
Day
in
6 Hr
Max Temp
°F
6 Hr
Min Temp
°F
21 10:00 8 4 81 WSW 2 G 5 1035.2 0.00
21 09:00 9 5 83 NNW 0 G 5 1033.8 0.00
21 08:00 8 4 82 NW 2 G 7 1032.6 0.00
21 07:00 8 4 83 NW 1 G 4 1031.2 0.01 0.00 8 6
21 06:00 8 4 84 NW 3 G 5 1030.1 0.01 0.00
21 05:00 7 3 84 WNW 4 G 7 1029.3 0.00
21 04:00 7 3 84 WNW 4 G 7 1028.6 0.00
21 03:00 7 3 83 NW 4 G 8 1028.0 0.01 0.00
21 02:00 7 3 83 WNW 6 G 10 1027.3 0.00
21 01:00 7 3 84 WNW 3 G 7 1026.8 0.00 10 7
21 00:00 7 3 84 WNW 3 G 8 1026.2 0.29
20 23:00 8 4 84 W 4 G 7 1025.8 0.29
20 22:00 9 5 84 WNW 4 G 8 1025.3 0.29
20 21:00 9 5 84 N 2 G 7 1024.8 0.29
20 20:00 10 6 84 NW 4 G 11 1024.3 0.29
20 19:00 10 6 84 NW 2 G 7 1023.4 0.29 17 10
20 18:00 11 7 83 NW 1 G 9 1022.4 0.29
20 17:00 13 8 80 NW 5 G 13 1021.1 0.01 0.29
20 16:00 14 9 82 NW 4 G 12 1019.9 0.03 0.28
20 15:00 15 10 82 NNW 4 G 11 1018.8 0.02 0.25
20 14:00 17 12 80 NW 7 G 14 1017.6 0.03 0.23
20 13:00 17 12 83 NNW 6 G 11 1016.9 0.01 0.20 17 15
20 12:00 17 12 81 NNW 4 G 10 1017.0 0.19
20 11:00 17 11 78 N 7 G 14 1016.5 0.19
20 10:00 16 11 80 N 6 G 16 1015.2 0.19
20 09:00 16 11 80 NNW 6 G 14 1014.1 0.19
20 08:00 16 12 86 NW 6 G 13 1012.8 0.19
20 07:00 17 14 87 N 8 G 19 1011.3 0.01 0.19 23 17
20 06:00 18 14 87 NNW 8 G 24 1009.4 0.01 0.18
20 05:00 17 14 87 NNE 7 G 18 1007.6 0.17
20 04:00 18 15 88 N 6 G 11 1006.2 0.03 0.17
20 03:00 19 16 88 N 7 G 16 1006.0 0.05 0.14
20 02:00 20 17 88 N 7 G 19 1004.5 0.04 0.09
20 01:00 23 20 89 N 8 G 18 1003.7 0.05 0.05 28 23
20 00:00 24 21 89 N 4 G 12 1004.7 0.05 0.60
19 23:00 25 22 89 NNE 9 G 17 1004.5 0.04 0.55
19 22:00 26 23 90 NNE 4 G 15 1004.6 0.05 0.51
19 21:00 26 24 90 NNE 6 G 12 1005.1 0.05 0.46
19 20:00 27 24 90 N 6 G 11 1005.8 0.06 0.41
19 19:00 27 25 90 NE 4 G 15 1006.5 0.07 0.35 30 27
19 18:00 27 25 90 ENE 8 G 14 1006.6 0.04 0.28
19 17:00 28 26 90 NE 4 G 10 1008.0 0.05 0.24
19 16:00 29 27 90 NE 5 G 8 1009.5 0.04 0.19
19 15:00 30 27 89 ENE 6 G 13 1010.0 0.05 0.15
19 14:00 30 27 89 ENE 4 G 12 1011.4 0.03 0.10
19 13:00 29 27 89 ENE 6 G 10 1013.1 0.03 0.07 29 27
19 12:00 29 25 88 E 7 G 13 1014.4 0.04 0.04
19 11:00 29 25 85 ENE 6 G 13 1016.7 0.00
19 10:00 28 23 82 ENE 6 G 12 1017.6 0.00
19 09:00 28 23 83 E 5 G 12 1018.6 0.00
19 08:00 27 23 84 E 7 G 13 1018.9 0.00
19 07:00 27 23 84 E 7 G 13 1020.1 0.00 30 27
19 06:00 28 23 84 ENE 4 G 10 1021.1 0.00
19 05:00 28 24 84 E 6 G 11 1021.6 0.00
19 04:00 28 24 84 NE 3 G 11 1021.4 0.00
19 03:00 28 24 84 ENE 7 G 12 1021.5 0.00
19 02:00 29 24 82 E 5 G 10 1022.6 0.00
19 01:00 30 25 81 E 2 G 4 1022.6 0.00 32 30
19 00:00 31 26 81 E 2 G 6 1023.0 0.00
18 23:00 32 25 77 N 1 G 4 1023.2 0.00
18 22:00 31 24 77 Calm 1023.2 0.00
18 21:00 31 25 77 Calm 1023.3 0.00
18 20:00 31 26 79 Calm 1023.8 0.00
18 19:00 32 26 80 Calm 1023.3 0.00 34 31
18 18:00 31 26 80 NW 2 G 5 1022.6 0.00
18 17:00 32 27 81 NW 4 G 7 1022.6 0.00
18 16:00 34 29 80 NW 2 G 7 1021.6 0.00
18 15:00 34 29 83 WNW 2 G 6 1021.2 0.00
18 14:00 33 29 85 W 3 G 6 1020.6 0.00
18 13:00 33 29 84 W 4 G 6 1020.5 0.00 34 31
18 12:00 33 29 85 W 3 G 5 1021.4 0.00
18 11:00 33 30 87 WSW 2 G 5 1021.3 0.00